Αναφορές Αεροδρομίων

 

KSJC - San Jose, California, USA
Distance from station: ΒΑ 14km
Ενημερώθηκε: 14/04/2021 13:53
Αίθριος
Αίθριος
 Ανεμος από ΝΑ
Ανεμος: ΝΑ 13 km/h
Θερμοκρασία: 8°C
Wind Chill: 6°C
Σημείο Δρόσου: 4°C
Υγρασία: 76%
Βαρόμετρο: 1012.5 hPa
Clouds: Αίθριος
Visibility: 16 km
2021/04/14 10:53 KSJC 141053Z AUTO 14007KT 10SM CLR 08/04 A2990 RMK AO2 SLP123 T00830039
KNUQ - Moffett Nas/Mtn, California, USA
Distance from station: Β 14km
Ενημερώθηκε: 14/04/2021 01:40
NOT Current

 
2021/04/13 22:40 KNUQ 132240Z AUTO RMK AO2 PNO PWINO TSNO
 
KPAO - Palo Alto, California, USA
Distance from station: ΒΒΔ 23km
Ενημερώθηκε: 14/04/2021 06:47
NOT Current
Αίθριος
Αίθριος
 Ανεμος από varies
Ανεμος: varies 7 km/h
Θερμοκρασία: 11°C
Σημείο Δρόσου: 5°C
Υγρασία: 67%
Βαρόμετρο: 1011.9 hPa
Clouds: Αίθριος
Visibility: 16 km
2021/04/14 03:47 KPAO 140347Z VRB04KT 10SM SKC 11/05 A2988 RMK LAST
KRHV - San Jose/Reid, California, USA
Distance from station: ΑΒΑ 19km
Ενημερώθηκε: 14/04/2021 07:47
NOT Current
Αίθριος
Αίθριος
 Ανεμος από calm
Ανεμος: Απνοια
Θερμοκρασία: 12°C
Σημείο Δρόσου: 5°C
Υγρασία: 63%
Βαρόμετρο: 1011.5 hPa
Clouds: Αίθριος
Visibility: 16 km
2021/04/14 04:47 KRHV 140447Z 00000KT 10SM SKC 12/05 A2987 RMK LAST
 
KOAK - Oakland, California, USA
Distance from station: ΒΒΔ 50km
Ενημερώθηκε: 14/04/2021 13:53
Σχεδόν νεφελώδης
Σχεδόν νεφελώδης
 Ανεμος από Ν
Ανεμος: Ν 19 km/h
Θερμοκρασία: 11°C
Σημείο Δρόσου: 6°C
Υγρασία: 72%
Βαρόμετρο: 1012.5 hPa
Clouds: Σχεδόν νεφελώδης
Visibility: 16 km
Cloud details: Μερικώς νεφελώδης 579 m
Σχεδόν νεφελώδης 732 m
Σχεδόν νεφελώδης 914 m
2021/04/14 10:53 KOAK 141053Z 19010KT 10SM SCT019 BKN024 BKN030 11/06 A2990 RMK AO2 SLP123 T01060061
KSQL - San Carlos Airpo, California, USA
Distance from station: ΒΔ 34km
Ενημερώθηκε: 14/04/2021 14:35
Few Clouds
Few Clouds
 Ανεμος από ΝΑ
Ανεμος: ΝΑ 6 km/h
Θερμοκρασία: 8°C
Σημείο Δρόσου: 5°C
Υγρασία: 82%
Βαρόμετρο: 1012.9 hPa
Clouds: Few Clouds
Visibility: 16 km
Cloud details: Few Clouds 701 m
2021/04/14 11:35 KSQL 141135Z AUTO 14003KT 10SM FEW023 08/05 A2991 RMK AO2
 
KSFO - San Francisco, California, USA
Distance from station: ΒΔ 49km
Ενημερώθηκε: 14/04/2021 13:56
Few Clouds
Few Clouds
 Ανεμος από ΒΔ
Ανεμος: ΒΔ 6 km/h
Θερμοκρασία: 11°C
Σημείο Δρόσου: 6°C
Υγρασία: 72%
Βαρόμετρο: 1012.2 hPa
Clouds: Few Clouds
Visibility: 16 km
Cloud details: Few Clouds 732 m
2021/04/14 10:56 KSFO 141056Z 31003KT 10SM FEW024 11/06 A2989 RMK AO2 SLP120 T01060056
KE16 - San Martin, California, USA
Distance from station: ΑΝΑ 43km
Ενημερώθηκε: 14/04/2021 14:15
Σχεδόν νεφελώδης
Σχεδόν νεφελώδης
 Ανεμος από ΑΝΑ
Ανεμος: ΑΝΑ 11 km/h
Θερμοκρασία: 8°C
Wind Chill: 6°C
Σημείο Δρόσου: 5°C
Υγρασία: 82%
Βαρόμετρο: 1013.5 hPa
Clouds: Σχεδόν νεφελώδης
Visibility: 16 km
Cloud details: Σχεδόν νεφελώδης 671 m
Σχεδόν νεφελώδης 823 m
2021/04/14 11:15 KE16 141115Z AUTO 12006KT 10SM BKN022 BKN027 08/05 A2993 RMK AO2 PWINO PNO
 
KWVI - Watsonville, California, USA
Distance from station: ΝΝΑ 44km
Ενημερώθηκε: 14/04/2021 13:53
Συννεφιά
Συννεφιά
 Ανεμος από Δ
Ανεμος: Δ 6 km/h
Θερμοκρασία: 10°C
Σημείο Δρόσου: 6°C
Υγρασία: 76%
Βαρόμετρο: 1013.5 hPa
Clouds: Συννεφιά
Visibility: 16 km
Cloud details: Συννεφιά 823 m
2021/04/14 10:53 KWVI 141053Z AUTO 26003KT 10SM OVC027 10/06 A2993 RMK AO2 SLP133 T01000061
KHAF - Half Moon Bay, California, USA
Distance from station: ΔΒΔ 50km
Ενημερώθηκε: 14/04/2021 14:35
Haze, Συννεφιά
Haze, Συννεφιά
 Ανεμος από calm
Ανεμος: Απνοια
Θερμοκρασία: 10°C
Σημείο Δρόσου: 7°C
Υγρασία: 82%
Βαρόμετρο: 1012.5 hPa
Περίληψη: Haze
Clouds: Συννεφιά
Visibility: 6 km
Cloud details: Συννεφιά 549 m
2021/04/14 11:35 KHAF 141135Z AUTO 00000KT 4SM HZ OVC018 10/07 A2990 RMK AO2
 
KHWD - Hayward, California, USA
Distance from station: Β 44km
Ενημερώθηκε: 14/04/2021 13:54
Αίθριος
Αίθριος
 Ανεμος από ΝΑ
Ανεμος: ΝΑ 7 km/h
Θερμοκρασία: 8°C
Wind Chill: 7°C
Σημείο Δρόσου: 4°C
Υγρασία: 76%
Βαρόμετρο: 1012.2 hPa
Clouds: Αίθριος
Visibility: 16 km
2021/04/14 10:54 KHWD 141054Z AUTO 13004KT 10SM CLR 08/04 A2989 RMK AO2 SLP131 T00830044
KLVK - Livermore, California, USA
Distance from station: ΒΒΑ 51km
Ενημερώθηκε: 14/04/2021 13:53
Αίθριος
Αίθριος
 Ανεμος από varies
Ανεμος: varies 7 km/h
Θερμοκρασία: 8°C
Wind Chill: 7°C
Σημείο Δρόσου: 4°C
Υγρασία: 76%
Βαρόμετρο: 1011.9 hPa
Clouds: Αίθριος
Visibility: 16 km
2021/04/14 10:53 KLVK 141053Z AUTO VRB04KT 10SM CLR 08/04 A2988 RMK AO2 SLP117 T00780044